createdAt,value
2022-10-17T00:00:17.436Z,101435.96
2022-10-17T00:03:18.647Z,101434.39
2022-10-17T00:05:47.596Z,101440.63
2022-10-17T00:08:20.914Z,101442.02
2022-10-17T00:11:01.990Z,101444.40
2022-10-17T00:13:40.109Z,101445.98
2022-10-17T00:16:07.325Z,101451.34
2022-10-17T00:18:34.641Z,101456.21
2022-10-17T00:21:05.628Z,101459.05
2022-10-17T00:23:44.776Z,101460.34
2022-10-17T00:26:11.763Z,101461.13
2022-10-17T00:28:41.713Z,101465.87
2022-10-17T00:31:11.510Z,101472.52
2022-10-17T00:33:50.145Z,101473.31
2022-10-17T00:37:19.931Z,101476.96
2022-10-17T00:42:39.591Z,101480.33
2022-10-17T00:44:35.195Z,101486.98
2022-10-17T00:47:17.336Z,101487.70
2022-10-17T00:50:31.903Z,101483.02
2022-10-17T00:53:57.248Z,101485.82
2022-10-17T00:56:45.936Z,101488.40
2022-10-17T00:59:25.984Z,101486.51
2022-10-17T01:02:01.343Z,101490.02
2022-10-17T01:04:27.993Z,101487.70
2022-10-17T01:06:56.099Z,101485.39
2022-10-17T01:09:24.591Z,101483.56
2022-10-17T01:12:27.452Z,101483.88
2022-10-17T01:15:23.349Z,101489.88
2022-10-17T01:18:09.416Z,101486.42
2022-10-17T01:20:59.582Z,101486.02
2022-10-17T01:23:28.970Z,101485.80
2022-10-17T01:26:32.847Z,101482.45
2022-10-17T01:29:21.194Z,101485.12
2022-10-17T01:32:06.738Z,101486.23
2022-10-17T01:35:21.260Z,101489.12
2022-10-17T01:38:24.969Z,101487.62
2022-10-17T01:41:14.766Z,101488.35
2022-10-17T01:44:01.938Z,101484.73
2022-10-17T01:46:40.059Z,101486.77
2022-10-17T01:49:18.728Z,101487.34
2022-10-17T01:51:56.535Z,101484.95
2022-10-17T01:54:53.822Z,101481.73
2022-10-17T01:57:42.426Z,101484.97
2022-10-17T02:00:21.393Z,101489.01
2022-10-17T02:02:56.580Z,101490.86
2022-10-17T02:05:31.431Z,101492.23
2022-10-17T02:07:58.315Z,101492.27
2022-10-17T02:10:47.060Z,101489.95
2022-10-17T02:13:27.278Z,101488.16
2022-10-17T02:16:23.751Z,101488.10
2022-10-17T02:19:45.182Z,101492.31
2022-10-17T02:22:49.736Z,101491.11
2022-10-17T02:25:27.226Z,101492.65
2022-10-17T02:28:05.864Z,101492.30
2022-10-17T02:30:45.458Z,101489.48
2022-10-17T02:33:43.234Z,101491.07
2022-10-17T02:36:24.971Z,101491.15
2022-10-17T02:38:55.377Z,101486.61
2022-10-17T02:44:00.111Z,101488.16
2022-10-17T02:46:41.226Z,101492.11
2022-10-17T02:49:22.668Z,101494.52
2022-10-17T02:52:11.235Z,101496.77
2022-10-17T02:58:04.091Z,101503.20
2022-10-17T03:00:32.070Z,101500.91
2022-10-17T03:03:01.239Z,101503.98
2022-10-17T03:05:41.279Z,101505.42
2022-10-17T03:08:08.117Z,101507.88
2022-10-17T03:11:14.230Z,101512.45
2022-10-17T03:13:54.687Z,101513.27
2022-10-17T03:16:21.609Z,101514.05
2022-10-17T03:18:50.084Z,101516.20
2022-10-17T03:21:19.787Z,101519.13
2022-10-17T03:23:58.118Z,101519.69
2022-10-17T03:26:39.425Z,101520.91
2022-10-17T03:29:08.568Z,101522.93
2022-10-17T03:31:35.829Z,101525.11
2022-10-17T03:34:05.383Z,101526.67
2022-10-17T03:36:45.342Z,101529.15
2022-10-17T03:39:16.475Z,101527.85
2022-10-17T03:41:43.367Z,101528.73
2022-10-17T03:44:10.131Z,101528.09
2022-10-17T03:46:36.798Z,101524.48
2022-10-17T03:49:04.183Z,101525.59
2022-10-17T03:51:34.406Z,101527.54
2022-10-17T03:54:03.925Z,101525.15
2022-10-17T03:56:30.697Z,101530.48
2022-10-17T03:59:05.040Z,101533.80
2022-10-17T04:01:33.606Z,101535.23
2022-10-17T04:04:02.078Z,101537.30
2022-10-17T04:06:31.149Z,101541.91
2022-10-17T04:08:59.278Z,101541.86
2022-10-17T04:11:44.433Z,101545.20
2022-10-17T04:14:11.849Z,101547.80
2022-10-17T04:16:42.561Z,101543.45
2022-10-17T04:19:13.502Z,101545.09
2022-10-17T04:21:45.487Z,101549.88
2022-10-17T04:24:15.159Z,101551.14
2022-10-17T04:26:50.700Z,101553.57
2022-10-17T04:29:20.834Z,101553.77
2022-10-17T04:31:50.467Z,101553.40
2022-10-17T04:34:20.707Z,101552.95
2022-10-17T04:37:06.431Z,101554.98
2022-10-17T04:39:33.693Z,101558.66
2022-10-17T04:42:20.107Z,101555.70
2022-10-17T04:44:47.281Z,101555.41
2022-10-17T04:47:16.036Z,101555.11
2022-10-17T04:49:43.395Z,101556.45
2022-10-17T04:52:10.979Z,101559.69
2022-10-17T04:54:41.002Z,101564.35
2022-10-17T04:57:09.626Z,101565.51
2022-10-17T04:59:36.925Z,101565.70
2022-10-17T05:02:13.720Z,101564.49
2022-10-17T05:04:40.575Z,101568.85
2022-10-17T05:07:13.579Z,101568.27
2022-10-17T05:09:47.628Z,101567.48
2022-10-17T05:12:15.967Z,101571.78
2022-10-17T05:15:11.706Z,101573.15
2022-10-17T05:17:40.988Z,101574.40
2022-10-17T05:20:11.967Z,101577.56
2022-10-17T05:22:42.155Z,101581.48
2022-10-17T05:25:12.326Z,101579.95
2022-10-17T05:27:39.227Z,101586.34
2022-10-17T05:30:09.221Z,101588.73
2022-10-17T05:32:44.377Z,101596.05
2022-10-17T05:35:16.241Z,101601.56
2022-10-17T05:37:52.830Z,101602.11
2022-10-17T05:40:27.121Z,101603.43
2022-10-17T05:42:54.400Z,101603.98
2022-10-17T05:45:23.408Z,101603.08
2022-10-17T05:47:52.291Z,101606.16
2022-10-17T05:50:21.525Z,101610.02
2022-10-17T05:53:17.928Z,101615.70
2022-10-17T05:56:07.396Z,101619.00
2022-10-17T05:58:49.808Z,101620.83
2022-10-17T06:01:28.156Z,101629.44
2022-10-17T06:03:55.748Z,101633.51
2022-10-17T06:06:22.492Z,101641.48
2022-10-17T06:08:52.298Z,101645.31
2022-10-17T06:11:59.765Z,101647.77
2022-10-17T06:15:58.262Z,101654.39
2022-10-17T06:18:07.647Z,101655.79
2022-10-17T06:20:45.322Z,101660.82
2022-10-17T06:23:51.807Z,101662.17
2022-10-17T06:27:02.501Z,101667.13
2022-10-17T06:29:32.508Z,101671.09
2022-10-17T06:32:53.611Z,101675.27
2022-10-17T06:43:06.237Z,101683.95
2022-10-17T06:46:05.038Z,101693.15
2022-10-17T06:49:28.577Z,101697.27
2022-10-17T06:52:50.670Z,101698.98
2022-10-17T06:55:47.522Z,101699.66
2022-10-17T06:59:10.491Z,101699.70
2022-10-17T07:01:59.879Z,101705.20
2022-10-17T07:04:27.218Z,101707.40
2022-10-17T07:09:41.124Z,101712.14
2022-10-17T07:12:20.715Z,101713.27
2022-10-17T07:20:33.600Z,101721.67
2022-10-17T07:41:17.785Z,101736.71
2022-10-17T07:47:59.910Z,101736.73
2022-10-17T08:05:32.073Z,101745.91
2022-10-17T08:08:13.703Z,101750.17
2022-10-17T10:30:54.850Z,101720.61
2022-10-17T10:38:11.402Z,101716.19
2022-10-17T10:41:23.530Z,101716.53
2022-10-17T11:10:33.059Z,101688.19
2022-10-17T11:14:16.314Z,101684.13
2022-10-17T11:30:07.282Z,101669.83
2022-10-17T11:48:13.389Z,101658.72
2022-10-17T12:27:52.707Z,101642.88
2022-10-17T12:49:24.737Z,101630.73
2022-10-17T12:58:01.567Z,101622.46
2022-10-17T13:03:44.588Z,101611.23
2022-10-17T13:06:46.831Z,101610.83
2022-10-17T13:22:32.763Z,101609.44
2022-10-17T13:25:56.396Z,101609.52
2022-10-17T13:31:08.332Z,101611.14
2022-10-17T19:26:46.149Z,101640.05
2022-10-17T19:30:30.177Z,101638.79
2022-10-17T19:32:58.229Z,101639.81
2022-10-17T19:36:14.015Z,101639.18
2022-10-17T19:40:31.028Z,101638.04
2022-10-17T19:43:21.977Z,101643.11
2022-10-17T19:46:45.353Z,101641.73
2022-10-17T19:50:41.220Z,101646.64
2022-10-17T19:53:44.447Z,101647.30
2022-10-17T19:56:35.676Z,101647.56
2022-10-17T20:03:06.873Z,101647.43
2022-10-17T20:05:50.500Z,101649.44
2022-10-17T20:11:30.545Z,101648.17
2022-10-17T20:14:34.373Z,101653.51
2022-10-17T20:17:36.588Z,101652.91
2022-10-17T20:26:46.945Z,101642.61
2022-10-17T20:29:50.914Z,101642.81
2022-10-17T20:32:24.249Z,101642.26
2022-10-17T20:35:11.995Z,101640.38
2022-10-17T20:38:26.215Z,101637.55
2022-10-17T20:41:15.238Z,101639.02
2022-10-17T20:48:19.048Z,101639.36
2022-10-17T20:51:17.524Z,101640.48
2022-10-17T20:54:28.765Z,101637.00
2022-10-17T20:57:14.402Z,101635.84
2022-10-17T21:10:43.863Z,101635.89
2022-10-17T21:19:12.877Z,101636.46
2022-10-17T21:21:29.744Z,101636.47
2022-10-17T21:24:24.552Z,101635.71
2022-10-17T21:27:00.779Z,101636.13
2022-10-17T21:29:39.919Z,101638.39
